EDLPEDDV

Guest
Details From EDLP - Paderborn Lippstadt
To EDDV - Hannover
Flight Number -
Tags generated
Created
Modified
Stats Distance 65 nm / 120 km
Max Altitude 6,300 ft / 1,920 m
Waypoints 3
Social Downloads 0
Likes 0
Share VATSIM

Download

Looking for another format? Having issues loading an existing format? Contact us
Advertisement - Login to hide

Notes

Basic altitude profile: - Ascent Rate: 2500ft/min - Ascent Speed: 250kts - Cruise Altitude: 35000ft - Cruise Speed: 420kts - Descent Rate: 1500ft/min - Descent Speed: 250kts Options: - Use NATs: yes - Use PACOTS: yes - Use low airways: yes - Use high airways: no

Route

EDLP PIROT EDDV

ID Type Via Altitude (ft/m) Position (lat/lon) Dist (leg/tot) Name
O EDLP APT - 0 / 0 51.61417 / 8.61634 - / 0 nm Paderborn Lippstadt
PIROT FIX - 6,300 / 1,920 52.05333 / 9.23694 35 / 35 nm
O EDDV APT - 0 / 0 52.46209 / 9.68679 29 / 64 nm Hannover

Altitude Profile

Advertisement - Login to hide

EDLP

Details ICAO EDLP (PAD)
Name Paderborn Lippstadt
Region Germany - Civil
Timezone Europe/Berlin (UTC+2.0)
Stats Elevation 699 ft / 213 m (AMSL)
Location 51.614100° 8.616320°
Runways 1
Magnetic Variation 2.470° E

METAR

EDLP 152220Z 18003KT 120V250 CAVOK 13/08 Q1016

Decode

TAF

TAF EDLP 151700Z 1518/1618 VRB03KT CAVOK= TAF EDLW 151700Z 1518/1618 VRB03KT CAVOK

Decode

Departure Runways

ID Width Length Bearing (true/mag) Surface Threshold Overrun Markings Lighting
06 148 ft / 45 m 7,158 ft / 2,182 m 56.71° / 54.24° ASPHALT 0 ft / 0 m 1,063 ft / 324 m PREC-APP CENTERLINE EDGE THRESHOLD ALSF-I
24 148 ft / 45 m 7,158 ft / 2,182 m 236.74° / 234.26° ASPHALT 0 ft / 0 m 384 ft / 117 m PREC-APP CENTERLINE EDGE THRESHOLD ALSF-I

EDDV

Details ICAO EDDV (HAJ)
Name Hannover
Region Germany - Civil
Timezone Europe/Berlin (UTC+2.0)
Stats Elevation 183 ft / 56 m (AMSL)
Location 52.460200° 9.683520°
Runways 3
Magnetic Variation 2.794° E

METAR

EDDV 152220Z VRB01KT CAVOK 12/09 Q1015

Decode

TAF

TAF EDDV 151700Z 1518/1618 VRB03KT CAVOK PROB40 TEMPO 1602/1607 2000 BCFG TEMPO 1610/1616 28006KT

Decode

Destination Runways

ID Width Length Bearing (true/mag) Surface Threshold Overrun Markings Lighting
09C 75 ft / 23 m 2,548 ft / 777 m 92.63° / 89.84° ASPHALT 197 ft / 60 m 0 ft / 0 m APP CENTERLINE EDGE THRESHOLD MALSF
09L 148 ft / 45 m 12,429 ft / 3,788 m 92.57° / 89.77° ASPHALT 984 ft / 300 m 0 ft / 0 m PREC-APP CENTERLINE EDGE THRESHOLD ALSF-I TDZ REIL-OMNI
09R 148 ft / 45 m 7,657 ft / 2,334 m 92.60° / 89.80° ASPHALT 0 ft / 0 m 0 ft / 0 m PREC-APP EDGE THRESHOLD ALSF-I REIL-OMNI
27C 75 ft / 23 m 2,548 ft / 777 m 272.64° / 269.85° ASPHALT 554 ft / 169 m 0 ft / 0 m APP CENTERLINE EDGE THRESHOLD MALSF
27L 148 ft / 45 m 7,657 ft / 2,334 m 272.62° / 269.83° ASPHALT 0 ft / 0 m 0 ft / 0 m PREC-APP EDGE THRESHOLD ALSF-I REIL-OMNI
27R 148 ft / 45 m 12,429 ft / 3,788 m 272.61° / 269.82° ASPHALT 984 ft / 300 m 0 ft / 0 m PREC-APP CENTERLINE EDGE THRESHOLD ALSF-I TDZ REIL-OMNI

Approach Navaids

Runway Type Ident Frequency Range Bearing (true/mag) Slope Elevation
09L LOC-ILS IHNE 108.30 MHz 18 nm / 33 km 92.60° / 89.81 ° - 167 ft / 51 m (AMSL)
09L GS IHNE 108.30 MHz 10 nm / 19 km 93.20° / 90.41 ° 3.00° 167 ft / 51 m (AMSL)
09L MM MM - - 92.60° / 89.81 ° - 183 ft / 56 m (AMSL)
09L OM OM - - 92.60° / 89.81 ° - 183 ft / 56 m (AMSL)
09R LOC-ILS IHSE 108.70 MHz 18 nm / 33 km 92.60° / 89.81 ° - 172 ft / 52 m (AMSL)
09R GS IHSE 108.70 MHz 10 nm / 19 km 93.20° / 90.41 ° 3.00° 172 ft / 52 m (AMSL)
09R MM MM - - 92.60° / 89.81 ° - 172 ft / 52 m (AMSL)
09R OM OM - - 92.60° / 89.81 ° - 183 ft / 56 m (AMSL)
27L GS IHSW 109.50 MHz 10 nm / 19 km 273.20° / 270.41 ° 3.00° 179 ft / 55 m (AMSL)
27L OM OM - - 272.60° / 269.81 ° - 179 ft / 55 m (AMSL)
27L LOC-ILS IHSW 109.50 MHz 18 nm / 33 km 272.60° / 269.81 ° - 179 ft / 55 m (AMSL)
27L MM MM - - 272.60° / 269.81 ° - 179 ft / 55 m (AMSL)
27R GS IHNW 108.90 MHz 10 nm / 19 km 273.20° / 270.41 ° 3.00° 169 ft / 52 m (AMSL)
27R LOC-ILS IHNW 108.90 MHz 18 nm / 33 km 272.60° / 269.81 ° - 169 ft / 52 m (AMSL)
27R OM OM - - 272.60° / 269.81 ° - 183 ft / 56 m (AMSL)
27R MM MM - - 272.60° / 269.81 ° - 183 ft / 56 m (AMSL)

Popular Alternatives